createdAt,value
2018-11-21T00:02:22.570Z,30.25
2018-11-21T00:04:49.897Z,32.65
2018-11-21T00:07:17.204Z,34.05
2018-11-21T00:09:44.519Z,33.15
2018-11-21T00:12:11.784Z,27.50
2018-11-21T00:14:39.125Z,30.57
2018-11-21T00:17:06.444Z,24.55
2018-11-21T00:19:33.932Z,29.37
2018-11-21T00:22:01.277Z,22.10
2018-11-21T00:24:28.591Z,30.72
2018-11-21T00:26:55.871Z,28.52
2018-11-21T00:29:23.248Z,31.00
2018-11-21T00:31:50.561Z,31.05
2018-11-21T00:34:17.836Z,30.72
2018-11-21T00:36:45.251Z,32.30
2018-11-21T00:39:12.524Z,28.27
2018-11-21T00:41:40.093Z,27.90
2018-11-21T00:44:07.446Z,24.43
2018-11-21T00:46:34.733Z,26.95
2018-11-21T00:49:02.036Z,27.27
2018-11-21T00:51:29.327Z,23.65
2018-11-21T00:53:56.616Z,28.55
2018-11-21T00:56:23.927Z,27.85
2018-11-21T00:58:51.221Z,28.05
2018-11-21T01:01:18.556Z,29.37
2018-11-21T01:03:45.843Z,28.42
2018-11-21T01:06:13.115Z,29.35
2018-11-21T01:08:40.432Z,25.72
2018-11-21T01:11:07.777Z,28.50
2018-11-21T01:13:35.086Z,29.15
2018-11-21T01:16:02.391Z,25.62
2018-11-21T01:18:29.677Z,28.87
2018-11-21T01:20:57.100Z,27.65
2018-11-21T01:23:24.418Z,23.92
2018-11-21T01:25:51.796Z,28.52
2018-11-21T01:28:19.062Z,24.32
2018-11-21T01:30:46.355Z,25.32
2018-11-21T01:33:13.638Z,27.87
2018-11-21T01:35:40.955Z,25.85
2018-11-21T01:38:08.275Z,26.37
2018-11-21T01:40:35.565Z,25.75
2018-11-21T01:43:02.855Z,28.38
2018-11-21T01:45:30.174Z,28.47
2018-11-21T01:47:57.487Z,28.05
2018-11-21T01:50:24.831Z,27.07
2018-11-21T01:52:52.157Z,25.08
2018-11-21T01:55:19.510Z,28.02
2018-11-21T01:57:46.851Z,27.22
2018-11-21T02:00:14.171Z,28.05
2018-11-21T02:02:41.467Z,27.65
2018-11-21T02:05:08.811Z,25.30
2018-11-21T02:07:36.067Z,29.37
2018-11-21T02:10:03.409Z,27.22
2018-11-21T02:12:30.823Z,27.58
2018-11-21T02:14:58.157Z,25.62
2018-11-21T02:17:25.485Z,27.75
2018-11-21T02:19:52.804Z,24.95
2018-11-21T02:22:20.157Z,25.50
2018-11-21T02:24:47.409Z,26.85
2018-11-21T02:27:14.763Z,26.57
2018-11-21T02:29:42.078Z,26.75
2018-11-21T02:32:09.368Z,26.12
2018-11-21T02:34:36.697Z,26.55
2018-11-21T02:37:03.983Z,27.13
2018-11-21T02:39:31.301Z,29.07
2018-11-21T02:41:58.619Z,26.80
2018-11-21T02:44:25.938Z,26.20
2018-11-21T02:46:53.261Z,26.20
2018-11-21T02:49:20.599Z,25.48
2018-11-21T02:51:47.902Z,26.40
2018-11-21T02:54:15.209Z,24.95
2018-11-21T02:57:02.722Z,25.37
2018-11-21T02:59:30.383Z,24.40
2018-11-21T03:01:57.720Z,25.82
2018-11-21T03:04:25.642Z,29.00
2018-11-21T03:06:52.992Z,22.55
2018-11-21T03:09:20.264Z,24.65
2018-11-21T03:11:47.601Z,21.82
2018-11-21T03:14:14.886Z,28.73
2018-11-21T03:16:42.181Z,25.97
2018-11-21T03:19:09.530Z,24.57
2018-11-21T03:21:36.788Z,24.75
2018-11-21T03:24:04.184Z,26.55
2018-11-21T03:26:31.532Z,23.90
2018-11-21T03:28:58.937Z,25.00
2018-11-21T03:31:26.207Z,23.18
2018-11-21T03:33:57.684Z,26.23
2018-11-21T03:36:21.669Z,27.15
2018-11-21T03:38:48.987Z,25.95
2018-11-21T03:41:16.274Z,25.88
2018-11-21T03:43:43.678Z,22.80
2018-11-21T03:46:11.008Z,26.48
2018-11-21T03:48:38.323Z,26.25
2018-11-21T03:51:05.920Z,26.00
2018-11-21T03:53:33.163Z,26.23
2018-11-21T03:56:00.475Z,24.50
2018-11-21T03:58:27.765Z,25.92
2018-11-21T04:00:55.081Z,23.52
2018-11-21T04:03:22.423Z,22.90
2018-11-21T04:05:49.680Z,28.00
2018-11-21T04:08:16.993Z,26.25
2018-11-21T04:10:44.244Z,27.62
2018-11-21T04:13:11.562Z,27.00
2018-11-21T04:15:46.318Z,21.60
2018-11-21T04:18:13.587Z,25.17
2018-11-21T04:20:40.941Z,27.62
2018-11-21T04:23:08.275Z,23.57
2018-11-21T04:25:35.620Z,27.93
2018-11-21T04:28:02.903Z,26.73
2018-11-21T04:30:30.217Z,28.05
2018-11-21T04:32:57.487Z,26.23
2018-11-21T04:35:24.837Z,24.02
2018-11-21T04:37:52.102Z,26.35
2018-11-21T04:40:19.386Z,28.42
2018-11-21T04:42:46.694Z,28.27
2018-11-21T04:45:13.960Z,30.20
2018-11-21T04:47:41.283Z,27.60
2018-11-21T04:50:08.907Z,27.82
2018-11-21T04:52:36.206Z,29.23
2018-11-21T04:55:03.471Z,28.87
2018-11-21T04:57:30.748Z,29.00
2018-11-21T04:59:58.067Z,29.98
2018-11-21T05:02:25.334Z,29.63
2018-11-21T05:04:52.659Z,26.70
2018-11-21T05:07:19.950Z,28.35
2018-11-21T05:09:47.228Z,29.63
2018-11-21T05:12:14.539Z,29.10
2018-11-21T05:14:41.918Z,31.20
2018-11-21T05:17:09.257Z,29.98
2018-11-21T05:19:36.545Z,28.83
2018-11-21T05:22:03.936Z,26.73
2018-11-21T05:24:31.243Z,28.30
2018-11-21T05:26:58.629Z,29.85
2018-11-21T05:29:25.953Z,30.17
2018-11-21T05:31:53.249Z,26.37
2018-11-21T05:34:20.566Z,28.73
2018-11-21T05:36:47.856Z,31.48
2018-11-21T05:39:15.149Z,29.23
2018-11-21T05:41:42.484Z,28.77
2018-11-21T05:44:09.770Z,32.05
2018-11-21T05:46:37.025Z,28.55
2018-11-21T05:49:04.297Z,29.02
2018-11-21T05:51:31.624Z,31.60
2018-11-21T05:53:59.032Z,30.82
2018-11-21T05:56:26.293Z,29.42
2018-11-21T05:58:53.578Z,30.00
2018-11-21T06:01:20.925Z,28.98
2018-11-21T06:03:48.247Z,30.55
2018-11-21T06:06:15.551Z,28.07
2018-11-21T06:08:42.968Z,26.97
2018-11-21T06:11:10.326Z,31.30
2018-11-21T06:13:37.623Z,32.03
2018-11-21T06:16:05.475Z,28.02
2018-11-21T06:18:33.052Z,30.57
2018-11-21T06:21:00.706Z,27.10
2018-11-21T06:23:27.974Z,30.35
2018-11-21T06:25:55.295Z,29.92
2018-11-21T06:28:22.617Z,29.20
2018-11-21T06:30:49.892Z,28.52
2018-11-21T06:33:17.172Z,31.55
2018-11-21T06:35:44.495Z,28.87
2018-11-21T06:38:11.808Z,32.35
2018-11-21T06:40:39.044Z,29.02
2018-11-21T06:43:06.309Z,30.65
2018-11-21T06:45:33.636Z,28.27
2018-11-21T06:48:00.980Z,30.97
2018-11-21T06:50:28.255Z,28.35
2018-11-21T06:52:56.223Z,31.77
2018-11-21T06:55:23.491Z,28.02
2018-11-21T06:57:50.781Z,30.45
2018-11-21T07:00:18.067Z,28.30
2018-11-21T07:02:45.404Z,29.63
2018-11-21T07:05:12.690Z,33.08
2018-11-21T07:07:40.012Z,31.45
2018-11-21T07:10:08.761Z,32.35
2018-11-21T07:12:35.993Z,32.25
2018-11-21T07:15:03.364Z,30.77
2018-11-21T07:17:30.630Z,30.90
2018-11-21T07:19:57.908Z,29.02
2018-11-21T07:22:25.220Z,30.48
2018-11-21T07:24:52.505Z,31.33
2018-11-21T07:27:19.762Z,26.50
2018-11-21T07:29:47.398Z,30.95
2018-11-21T07:32:14.710Z,30.02
2018-11-21T07:34:42.013Z,32.75
2018-11-21T07:37:09.318Z,30.52
2018-11-21T07:39:36.608Z,31.52
2018-11-21T07:42:03.954Z,31.90
2018-11-21T07:44:31.219Z,30.32
2018-11-21T07:46:58.503Z,30.85
2018-11-21T07:49:25.802Z,32.93
2018-11-21T07:51:53.104Z,32.13
2018-11-21T07:54:20.449Z,32.30
2018-11-21T07:57:07.171Z,32.73
2018-11-21T07:59:34.522Z,28.45
2018-11-21T08:05:06.914Z,30.95
2018-11-21T08:07:53.482Z,33.02
2018-11-21T08:10:42.568Z,32.35
2018-11-21T08:13:29.504Z,29.65
2018-11-21T08:16:16.090Z,32.00
2018-11-21T08:18:54.394Z,35.17
2018-11-21T08:21:40.951Z,28.95
2018-11-21T08:24:16.469Z,34.80
2018-11-21T08:27:01.418Z,32.33
2018-11-21T08:29:28.697Z,30.80
2018-11-21T08:31:57.267Z,32.20
2018-11-21T08:34:24.741Z,34.88
2018-11-21T08:36:52.671Z,29.00
2018-11-21T08:39:21.251Z,31.87
2018-11-21T08:42:08.344Z,32.45
2018-11-21T08:44:35.708Z,32.63
2018-11-21T08:47:06.154Z,34.03
2018-11-21T08:49:33.516Z,32.25
2018-11-21T08:52:01.032Z,33.98
2018-11-21T08:54:28.364Z,31.95
2018-11-21T08:56:55.640Z,31.48
2018-11-21T08:59:22.976Z,33.58
2018-11-21T09:01:50.871Z,30.12
2018-11-21T09:04:18.182Z,32.23
2018-11-21T09:06:45.879Z,33.23
2018-11-21T09:09:13.185Z,34.80
2018-11-21T09:11:40.934Z,34.73
2018-11-21T09:14:08.260Z,35.45
2018-11-21T09:16:54.986Z,34.35
2018-11-21T09:19:22.630Z,33.42
2018-11-21T09:21:50.357Z,36.15
2018-11-21T09:24:17.980Z,35.85
2018-11-21T09:26:45.632Z,32.78
2018-11-21T09:29:13.387Z,35.50
2018-11-21T09:31:41.151Z,34.92
2018-11-21T09:34:08.473Z,32.58
2018-11-21T09:36:35.809Z,35.50
2018-11-21T09:39:03.466Z,35.98
2018-11-21T09:41:31.389Z,32.58
2018-11-21T09:43:58.948Z,33.92
2018-11-21T09:46:26.614Z,33.58
2018-11-21T09:48:55.071Z,33.58
2018-11-21T09:51:22.860Z,35.80
2018-11-21T09:53:50.257Z,33.33
2018-11-21T09:56:17.986Z,33.15
2018-11-21T09:58:45.885Z,34.13
2018-11-21T10:01:32.608Z,33.05
2018-11-21T10:04:01.081Z,32.35
2018-11-21T10:06:28.922Z,34.48
2018-11-21T10:09:00.917Z,35.80
2018-11-21T10:11:28.759Z,33.23
2018-11-21T10:13:56.467Z,33.63
2018-11-21T10:16:24.263Z,32.08
2018-11-21T10:18:53.992Z,33.40
2018-11-21T10:21:23.013Z,31.23
2018-11-21T10:23:50.340Z,36.33
2018-11-21T10:26:17.896Z,32.80
2018-11-21T10:28:47.093Z,35.48
2018-11-21T10:31:14.425Z,36.70
2018-11-21T10:33:41.769Z,32.75
2018-11-21T10:36:09.153Z,33.63
2018-11-21T10:38:36.467Z,35.70
2018-11-21T10:41:03.887Z,36.68
2018-11-21T10:43:31.836Z,34.67
2018-11-21T10:45:59.222Z,36.03
2018-11-21T10:48:26.980Z,34.78
2018-11-21T10:50:54.302Z,33.33
2018-11-21T10:53:21.699Z,36.58
2018-11-21T10:55:49.115Z,37.58
2018-11-21T10:58:16.436Z,35.48
2018-11-21T11:01:03.081Z,37.15
2018-11-21T11:03:49.602Z,36.10
2018-11-21T11:06:36.226Z,37.40
2018-11-21T11:09:22.789Z,35.68
2018-11-21T11:12:10.339Z,37.08
2018-11-21T11:14:56.877Z,37.05
2018-11-21T11:17:43.594Z,35.88
2018-11-21T11:20:30.154Z,37.98
2018-11-21T11:23:17.028Z,35.43
2018-11-21T11:26:03.807Z,36.80
2018-11-21T11:28:50.455Z,35.08
2018-11-21T11:34:43.988Z,34.80
2018-11-21T11:37:48.492Z,35.52
2018-11-21T11:40:35.381Z,37.55
2018-11-21T11:43:21.924Z,34.33
2018-11-21T11:49:00.960Z,35.30
2018-11-21T11:51:47.769Z,34.80
2018-11-21T11:54:34.923Z,36.63
2018-11-21T11:57:21.984Z,36.98
2018-11-21T12:00:08.785Z,34.53
2018-11-21T12:02:55.334Z,35.23
2018-11-21T12:05:41.876Z,37.15
2018-11-21T12:08:46.360Z,35.05
2018-11-21T12:11:31.347Z,30.80
2018-11-21T12:14:35.976Z,33.70
2018-11-21T12:17:15.457Z,32.20
2018-11-21T12:20:06.398Z,37.10
2018-11-21T12:22:51.391Z,34.43
2018-11-21T12:25:43.743Z,37.30
2018-11-21T12:28:36.302Z,34.00
2018-11-21T12:31:22.559Z,33.73
2018-11-21T12:34:18.565Z,37.98
2018-11-21T12:37:03.827Z,37.08
2018-11-21T12:39:49.164Z,32.45
2018-11-21T12:42:34.325Z,34.50
2018-11-21T12:45:20.344Z,35.78
2018-11-21T12:48:09.505Z,36.63
2018-11-21T12:51:04.156Z,34.78
2018-11-21T12:53:44.166Z,34.40
2018-11-21T12:56:22.026Z,36.17
2018-11-21T12:59:07.310Z,32.93
2018-11-21T13:01:53.837Z,35.30
2018-11-21T13:04:43.199Z,36.73
2018-11-21T13:07:33.254Z,36.05
2018-11-21T13:10:22.503Z,37.28
2018-11-21T13:13:07.932Z,40.25
2018-11-21T13:15:53.033Z,36.33
2018-11-21T13:18:38.348Z,36.75
2018-11-21T13:21:33.915Z,39.00
2018-11-21T13:24:23.184Z,37.88
2018-11-21T13:27:15.762Z,38.35
2018-11-21T13:30:05.024Z,35.75
2018-11-21T13:32:51.021Z,36.35
2018-11-21T13:35:26.216Z,36.03
2018-11-21T13:38:27.722Z,39.18
2018-11-21T13:41:17.345Z,33.48
2018-11-21T13:44:02.474Z,37.45
2018-11-21T13:46:49.305Z,40.08
2018-11-21T13:49:38.547Z,36.25
2018-11-21T13:52:31.119Z,41.00
2018-11-21T13:54:59.861Z,39.67
2018-11-21T13:57:27.505Z,38.73
2018-11-21T13:59:55.348Z,36.90
2018-11-21T14:02:22.812Z,38.65
2018-11-21T14:04:50.275Z,37.45
2018-11-21T14:07:17.908Z,36.90
2018-11-21T14:09:45.223Z,37.03
2018-11-21T14:12:12.561Z,37.98
2018-11-21T14:14:40.472Z,36.93
2018-11-21T14:17:07.920Z,38.53
2018-11-21T14:19:35.523Z,33.55
2018-11-21T14:22:02.919Z,34.03
2018-11-21T14:24:30.746Z,36.33
2018-11-21T14:26:58.172Z,36.23
2018-11-21T14:29:25.617Z,35.70
2018-11-21T14:31:52.988Z,37.80
2018-11-21T14:34:22.110Z,36.88
2018-11-21T14:36:49.389Z,38.80
2018-11-21T14:39:17.060Z,34.53
2018-11-21T14:41:45.398Z,33.75
2018-11-21T14:44:12.731Z,36.25
2018-11-21T14:46:40.557Z,37.23
2018-11-21T14:49:08.224Z,35.85
2018-11-21T14:51:36.001Z,38.23
2018-11-21T14:54:03.293Z,38.13
2018-11-21T14:56:30.649Z,36.15
2018-11-21T14:58:58.154Z,36.65
2018-11-21T15:01:25.543Z,37.10
2018-11-21T15:03:52.841Z,35.35
2018-11-21T15:06:20.207Z,35.40
2018-11-21T15:08:47.658Z,36.17
2018-11-21T15:11:15.062Z,38.73
2018-11-21T15:13:42.353Z,33.40
2018-11-21T15:16:09.756Z,34.90
2018-11-21T15:18:37.144Z,32.35
2018-11-21T15:21:04.807Z,36.08
2018-11-21T15:23:32.079Z,32.93
2018-11-21T15:25:59.383Z,33.50
2018-11-21T15:28:27.928Z,34.92
2018-11-21T15:30:54.362Z,35.33
2018-11-21T15:33:21.687Z,36.35
2018-11-21T15:35:49.036Z,35.15
2018-11-21T15:38:16.429Z,34.33
2018-11-21T15:40:47.049Z,32.48
2018-11-21T15:43:11.135Z,36.08
2018-11-21T15:45:38.657Z,33.05
2018-11-21T15:48:06.162Z,35.33
2018-11-21T15:50:33.937Z,33.08
2018-11-21T15:53:01.277Z,36.42
2018-11-21T15:55:28.631Z,33.63
2018-11-21T15:57:56.062Z,34.55
2018-11-21T16:00:28.265Z,32.85
2018-11-21T16:02:57.639Z,32.15
2018-11-21T16:05:25.292Z,30.10
2018-11-21T16:07:52.635Z,32.98
2018-11-21T16:10:21.837Z,32.63
2018-11-21T16:12:49.160Z,32.50
2018-11-21T16:15:18.827Z,34.27
2018-11-21T16:17:46.280Z,34.30
2018-11-21T16:20:14.852Z,33.20
2018-11-21T16:22:42.229Z,29.90
2018-11-21T16:25:12.830Z,32.23
2018-11-21T16:27:40.563Z,35.43
2018-11-21T16:30:09.002Z,34.95
2018-11-21T16:32:36.336Z,31.02
2018-11-21T16:35:08.260Z,30.68
2018-11-21T16:37:31.253Z,32.25
2018-11-21T16:39:58.608Z,34.10
2018-11-21T16:42:25.952Z,32.50
2018-11-21T16:44:53.285Z,32.28
2018-11-21T16:47:20.710Z,33.23
2018-11-21T16:49:48.029Z,33.78
2018-11-21T16:52:15.661Z,33.15
2018-11-21T16:54:43.406Z,35.00
2018-11-21T16:57:11.859Z,33.53
2018-11-21T16:59:40.558Z,34.18
2018-11-21T17:02:07.839Z,32.03
2018-11-21T17:04:39.130Z,34.48
2018-11-21T17:07:07.658Z,32.28
2018-11-21T17:09:43.404Z,32.93
2018-11-21T17:12:13.065Z,33.63
2018-11-21T17:14:41.186Z,34.15
2018-11-21T17:17:08.741Z,33.42
2018-11-21T17:19:36.078Z,31.57
2018-11-21T17:22:03.389Z,33.40
2018-11-21T17:24:31.064Z,31.73
2018-11-21T17:26:59.017Z,31.80
2018-11-21T17:29:26.970Z,32.40
2018-11-21T17:31:54.351Z,32.03
2018-11-21T17:34:21.853Z,32.67
2018-11-21T17:36:49.787Z,32.30
2018-11-21T17:39:17.200Z,31.20
2018-11-21T17:41:44.907Z,33.35
2018-11-21T17:44:12.813Z,31.73
2018-11-21T17:46:40.388Z,32.53
2018-11-21T17:49:08.126Z,33.33
2018-11-21T17:51:35.483Z,36.08
2018-11-21T17:54:03.295Z,34.95
2018-11-21T17:56:30.575Z,34.80
2018-11-21T17:58:57.889Z,34.10
2018-11-21T18:01:25.203Z,33.83
2018-11-21T18:03:52.537Z,35.83
2018-11-21T18:06:19.828Z,33.28
2018-11-21T18:08:47.135Z,35.25
2018-11-21T18:11:14.618Z,35.25
2018-11-21T18:13:42.454Z,35.58
2018-11-21T18:16:29.140Z,34.55
2018-11-21T18:18:56.473Z,34.08
2018-11-21T18:21:23.825Z,34.33
2018-11-21T18:23:51.169Z,35.92
2018-11-21T18:26:18.490Z,34.95
2018-11-21T18:28:45.806Z,35.90
2018-11-21T18:31:13.107Z,37.23
2018-11-21T18:33:40.382Z,33.65
2018-11-21T18:36:07.879Z,35.45
2018-11-21T18:38:35.270Z,33.18
2018-11-21T18:41:02.647Z,36.40
2018-11-21T18:43:29.974Z,34.45
2018-11-21T18:45:57.269Z,35.45
2018-11-21T18:48:24.609Z,36.73
2018-11-21T18:50:51.904Z,35.63
2018-11-21T18:53:19.252Z,36.77
2018-11-21T18:55:50.882Z,37.65
2018-11-21T18:58:22.536Z,38.60
2018-11-21T19:00:50.635Z,39.60
2018-11-21T19:03:17.979Z,37.17
2018-11-21T19:05:45.356Z,39.13
2018-11-21T19:08:12.675Z,37.15
2018-11-21T19:10:40.072Z,37.03
2018-11-21T19:13:07.409Z,38.92
2018-11-21T19:15:34.724Z,38.15
2018-11-21T19:18:02.053Z,37.90
2018-11-21T19:20:29.342Z,36.88
2018-11-21T19:22:56.714Z,38.30
2018-11-21T19:25:24.029Z,38.30
2018-11-21T19:27:51.349Z,37.33
2018-11-21T19:30:19.370Z,37.65
2018-11-21T19:32:46.910Z,38.20
2018-11-21T19:35:14.242Z,36.10
2018-11-21T19:37:41.556Z,37.28
2018-11-21T19:40:09.780Z,37.83
2018-11-21T19:42:37.079Z,38.15
2018-11-21T19:45:04.580Z,40.17
2018-11-21T19:47:31.925Z,36.80
2018-11-21T19:49:59.253Z,36.95
2018-11-21T19:52:26.527Z,39.98
2018-11-21T19:54:53.875Z,36.90
2018-11-21T19:57:27.891Z,37.78
2018-11-21T19:59:55.564Z,39.88
2018-11-21T20:02:22.865Z,38.15
2018-11-21T20:04:50.612Z,37.28
2018-11-21T20:07:19.287Z,38.83
2018-11-21T20:09:46.587Z,38.53
2018-11-21T20:12:14.373Z,39.25
2018-11-21T20:14:41.837Z,42.55
2018-11-21T20:17:09.516Z,39.40
2018-11-21T20:19:37.001Z,37.30
2018-11-21T20:22:04.442Z,41.08
2018-11-21T20:24:31.725Z,38.15
2018-11-21T20:27:00.382Z,40.63
2018-11-21T20:29:28.166Z,38.13
2018-11-21T20:31:56.778Z,38.67
2018-11-21T20:34:27.103Z,42.23
2018-11-21T20:36:54.608Z,39.98
2018-11-21T20:39:22.408Z,41.85
2018-11-21T20:41:50.285Z,41.20
2018-11-21T20:44:18.836Z,39.65
2018-11-21T20:46:46.774Z,40.60
2018-11-21T20:49:14.700Z,34.75
2018-11-21T20:51:42.425Z,42.40
2018-11-21T20:54:10.991Z,43.48
2018-11-21T20:56:39.405Z,40.67
2018-11-21T20:59:07.039Z,37.75
2018-11-21T21:01:36.164Z,40.70
2018-11-21T21:04:05.083Z,40.98
2018-11-21T21:06:33.746Z,40.73
2018-11-21T21:09:01.401Z,42.20
2018-11-21T21:11:29.897Z,39.60
2018-11-21T21:13:58.928Z,39.92
2018-11-21T21:16:26.755Z,36.45
2018-11-21T21:18:54.338Z,40.58
2018-11-21T21:21:21.978Z,41.50
2018-11-21T21:23:49.944Z,39.35
2018-11-21T21:26:17.995Z,40.05
2018-11-21T21:28:45.646Z,40.48
2018-11-21T21:31:13.338Z,42.67
2018-11-21T21:33:41.175Z,41.45
2018-11-21T21:36:08.463Z,39.08
2018-11-21T21:38:36.773Z,36.17
2018-11-21T21:41:04.884Z,39.78
2018-11-21T21:43:32.590Z,40.28
2018-11-21T21:45:59.907Z,40.20
2018-11-21T21:48:29.174Z,39.08
2018-11-21T21:50:57.450Z,38.50
2018-11-21T21:53:26.619Z,38.73
2018-11-21T21:55:53.971Z,37.90
2018-11-21T21:58:22.844Z,37.85
2018-11-21T22:00:50.625Z,41.90
2018-11-21T22:03:17.984Z,39.38
2018-11-21T22:05:45.377Z,38.55
2018-11-21T22:08:12.902Z,37.55
2018-11-21T22:10:40.195Z,38.90
2018-11-21T22:13:07.740Z,38.25
2018-11-21T22:15:37.348Z,36.90
2018-11-21T22:18:06.783Z,36.98
2018-11-21T22:20:34.139Z,35.03
2018-11-21T22:23:02.179Z,36.88
2018-11-21T22:25:30.179Z,38.58
2018-11-21T22:27:57.909Z,38.92
2018-11-21T22:30:25.326Z,39.23
2018-11-21T22:32:53.379Z,36.70
2018-11-21T22:35:25.088Z,36.95
2018-11-21T22:37:51.690Z,37.83
2018-11-21T22:40:19.952Z,37.45
2018-11-21T22:42:48.041Z,40.28
2018-11-21T22:45:16.738Z,37.80
2018-11-21T22:47:44.174Z,38.30
2018-11-21T22:50:13.292Z,35.73
2018-11-21T22:52:40.659Z,37.78
2018-11-21T22:55:08.799Z,38.65
2018-11-21T22:57:38.319Z,38.48
2018-11-21T23:00:08.697Z,37.80
2018-11-21T23:02:36.390Z,38.00
2018-11-21T23:05:04.583Z,39.65
2018-11-21T23:07:32.536Z,36.00
2018-11-21T23:10:00.499Z,37.33
2018-11-21T23:12:28.108Z,38.23
2018-11-21T23:14:57.141Z,38.00
2018-11-21T23:17:25.058Z,36.20
2018-11-21T23:19:52.505Z,37.48
2018-11-21T23:22:20.342Z,37.50
2018-11-21T23:24:47.644Z,37.75
2018-11-21T23:27:15.461Z,39.15
2018-11-21T23:29:42.778Z,38.70
2018-11-21T23:32:10.349Z,36.35
2018-11-21T23:34:38.123Z,37.48
2018-11-21T23:37:05.535Z,38.28
2018-11-21T23:39:33.340Z,40.05
2018-11-21T23:42:00.728Z,35.92
2018-11-21T23:44:28.008Z,35.95
2018-11-21T23:46:55.346Z,35.58
2018-11-21T23:49:22.665Z,35.63
2018-11-21T23:51:49.928Z,38.85
2018-11-21T23:54:17.287Z,35.33
2018-11-21T23:56:44.560Z,38.20
2018-11-21T23:59:11.881Z,37.40
